createdAt,value
2018-08-23T00:01:29.412Z,52.00
2018-08-23T00:04:13.132Z,47.80
2018-08-23T00:06:52.406Z,49.50
2018-08-23T00:09:20.861Z,42.23
2018-08-23T00:11:49.293Z,45.50
2018-08-23T00:14:18.136Z,42.47
2018-08-23T00:16:47.412Z,47.77
2018-08-23T00:19:16.494Z,48.77
2018-08-23T00:21:48.714Z,46.33
2018-08-23T00:24:22.324Z,42.93
2018-08-23T00:26:52.674Z,48.13
2018-08-23T00:29:26.417Z,47.30
2018-08-23T00:32:10.225Z,45.80
2018-08-23T00:34:39.758Z,48.07
2018-08-23T00:37:08.984Z,48.57
2018-08-23T00:39:37.487Z,45.73
2018-08-23T00:42:07.610Z,44.47
2018-08-23T00:44:52.693Z,45.50
2018-08-23T00:47:23.587Z,41.83
2018-08-23T00:49:52.177Z,43.13
2018-08-23T00:52:34.174Z,42.37
2018-08-23T00:55:14.461Z,36.33
2018-08-23T00:57:44.864Z,39.93
2018-08-23T01:00:21.282Z,35.23
2018-08-23T01:02:55.187Z,37.30
2018-08-23T01:05:28.973Z,37.23
2018-08-23T01:07:57.558Z,38.17
2018-08-23T01:10:26.644Z,41.17
2018-08-23T01:12:59.525Z,38.37
2018-08-23T01:15:28.560Z,37.03
2018-08-23T01:18:10.963Z,35.53
2018-08-23T01:20:41.113Z,33.87
2018-08-23T01:23:09.645Z,35.80
2018-08-23T01:25:41.267Z,36.40
2018-08-23T01:28:09.889Z,33.67
2018-08-23T01:30:39.292Z,35.00
2018-08-23T01:33:12.778Z,36.33
2018-08-23T01:35:42.728Z,33.63
2018-08-23T01:38:11.721Z,34.63
2018-08-23T01:40:40.281Z,36.07
2018-08-23T01:43:08.849Z,33.40
2018-08-23T01:45:37.331Z,34.53
2018-08-23T01:48:08.393Z,35.90
2018-08-23T01:50:36.881Z,37.90
2018-08-23T01:53:05.445Z,39.73
2018-08-23T01:55:34.082Z,40.00
2018-08-23T01:58:02.547Z,39.97
2018-08-23T02:00:32.206Z,40.03
2018-08-23T02:03:01.513Z,36.73
2018-08-23T02:05:29.961Z,39.20
2018-08-23T02:07:58.632Z,36.43
2018-08-23T02:10:27.176Z,38.13
2018-08-23T02:12:56.998Z,36.17
2018-08-23T02:15:26.145Z,38.83
2018-08-23T02:17:56.630Z,46.10
2018-08-23T02:20:26.250Z,41.70
2018-08-23T02:22:55.458Z,37.37
2018-08-23T02:25:24.487Z,38.97
2018-08-23T02:28:00.928Z,39.40
2018-08-23T02:30:44.965Z,40.50
2018-08-23T02:33:14.120Z,36.63
2018-08-23T02:35:54.643Z,38.13
2018-08-23T02:38:23.790Z,40.83
2018-08-23T02:40:52.341Z,41.40
2018-08-23T02:43:20.904Z,38.73
2018-08-23T02:45:52.194Z,39.17
2018-08-23T02:48:22.357Z,42.63
2018-08-23T02:50:51.486Z,39.03
2018-08-23T02:53:37.902Z,41.57
2018-08-23T02:56:09.421Z,45.47
2018-08-23T02:58:50.368Z,41.60
2018-08-23T03:01:18.946Z,47.00
2018-08-23T03:04:02.101Z,46.57
2018-08-23T03:06:36.025Z,43.70
2018-08-23T03:09:05.842Z,46.77
2018-08-23T03:11:36.776Z,44.20
2018-08-23T03:14:05.479Z,41.93
2018-08-23T03:16:46.412Z,39.47
2018-08-23T03:19:15.331Z,42.70
2018-08-23T03:21:44.417Z,44.23
2018-08-23T03:24:13.149Z,45.00
2018-08-23T03:26:41.917Z,44.47
2018-08-23T03:29:10.503Z,38.47
2018-08-23T03:31:38.971Z,44.57
2018-08-23T03:34:08.052Z,44.60
2018-08-23T03:36:36.502Z,42.50
2018-08-23T03:39:08.046Z,45.43
2018-08-23T03:41:36.616Z,50.97
2018-08-23T03:44:06.949Z,47.80
2018-08-23T03:46:47.212Z,45.37
2018-08-23T03:49:15.667Z,47.53
2018-08-23T03:51:44.158Z,46.03
2018-08-23T03:54:12.903Z,63.53
2018-08-23T03:56:45.960Z,66.30
2018-08-23T03:59:14.409Z,61.63
2018-08-23T04:01:42.869Z,62.50
2018-08-23T04:04:11.394Z,59.20
2018-08-23T04:06:39.834Z,58.30
2018-08-23T04:09:09.653Z,55.73
2018-08-23T04:11:38.122Z,54.33
2018-08-23T04:14:06.792Z,51.90
2018-08-23T04:16:35.241Z,54.30
2018-08-23T04:19:03.734Z,52.37
2018-08-23T04:21:32.193Z,56.27
2018-08-23T04:24:00.733Z,54.50
2018-08-23T04:26:29.233Z,58.80
2018-08-23T04:28:57.724Z,58.77
2018-08-23T04:31:26.321Z,62.07
2018-08-23T04:33:54.881Z,61.03
2018-08-23T04:36:32.651Z,61.17
2018-08-23T04:39:05.999Z,59.93
2018-08-23T04:41:34.470Z,61.70
2018-08-23T04:44:06.981Z,65.90
2018-08-23T04:46:35.417Z,62.27
2018-08-23T04:49:06.466Z,57.60
2018-08-23T04:51:36.168Z,59.93
2018-08-23T04:54:05.444Z,55.53
2018-08-23T04:56:34.257Z,56.17
2018-08-23T04:59:02.809Z,54.03
2018-08-23T05:01:31.256Z,52.87
2018-08-23T05:03:59.754Z,54.80
2018-08-23T05:06:28.270Z,53.17
2018-08-23T05:08:57.219Z,53.23
2018-08-23T05:11:25.641Z,58.20
2018-08-23T05:13:54.091Z,53.17
2018-08-23T05:16:22.530Z,52.43
2018-08-23T05:18:50.988Z,45.00
2018-08-23T05:21:19.449Z,49.13
2018-08-23T05:23:47.885Z,49.13
2018-08-23T05:26:17.712Z,51.73
2018-08-23T05:28:58.812Z,48.33
2018-08-23T05:31:28.513Z,46.60
2018-08-23T05:33:59.430Z,44.30
2018-08-23T05:36:27.893Z,46.50
2018-08-23T05:38:56.324Z,44.17
2018-08-23T05:41:24.771Z,45.07
2018-08-23T05:44:13.296Z,44.53
2018-08-23T05:46:48.543Z,38.80
2018-08-23T05:49:16.988Z,42.50
2018-08-23T05:51:45.756Z,42.80
2018-08-23T05:54:14.177Z,40.17
2018-08-23T05:56:42.648Z,42.27
2018-08-23T05:59:15.052Z,39.10
2018-08-23T06:01:44.270Z,38.03
2018-08-23T06:04:12.943Z,41.43
2018-08-23T06:06:41.756Z,38.27
2018-08-23T06:09:13.472Z,41.67
2018-08-23T06:11:42.190Z,36.40
2018-08-23T06:14:11.011Z,38.60
2018-08-23T06:16:48.748Z,36.87
2018-08-23T06:19:17.172Z,36.00
2018-08-23T06:21:45.602Z,30.73
2018-08-23T06:24:14.053Z,30.87
2018-08-23T06:26:48.048Z,32.07
2018-08-23T06:29:26.313Z,33.43
2018-08-23T06:32:03.087Z,29.47
2018-08-23T06:34:41.857Z,32.30
2018-08-23T06:37:10.300Z,31.60
2018-08-23T06:39:41.192Z,31.40
2018-08-23T06:42:10.516Z,33.33
2018-08-23T06:44:44.577Z,33.77
2018-08-23T06:47:14.645Z,34.93
2018-08-23T06:49:44.181Z,29.57
2018-08-23T06:52:49.501Z,29.97
2018-08-23T06:55:23.389Z,26.53
2018-08-23T06:57:56.037Z,25.00
2018-08-23T07:00:25.353Z,27.90
2018-08-23T07:02:53.901Z,28.70
2018-08-23T07:05:22.710Z,26.13
2018-08-23T07:07:51.333Z,24.43
2018-08-23T07:10:19.784Z,21.80
2018-08-23T07:12:49.204Z,26.43
2018-08-23T07:15:17.641Z,21.47
2018-08-23T07:17:46.191Z,21.87
2018-08-23T07:20:15.776Z,23.10
2018-08-23T07:22:44.225Z,18.67
2018-08-23T07:25:16.234Z,20.13
2018-08-23T07:27:44.689Z,19.00
2018-08-23T07:30:19.002Z,21.20
2018-08-23T07:32:49.037Z,18.83
2018-08-23T07:35:18.878Z,21.53
2018-08-23T07:37:49.884Z,20.87
2018-08-23T07:40:19.804Z,20.37
2018-08-23T07:42:49.620Z,19.07
2018-08-23T07:45:18.079Z,18.87
2018-08-23T07:47:51.075Z,17.73
2018-08-23T07:50:19.867Z,15.90
2018-08-23T07:52:50.659Z,15.90
2018-08-23T07:55:19.108Z,14.90
2018-08-23T07:57:47.845Z,14.73
2018-08-23T08:00:26.672Z,17.50
2018-08-23T08:02:55.191Z,17.17
2018-08-23T08:05:28.233Z,13.00
2018-08-23T08:07:56.719Z,15.00
2018-08-23T08:10:29.369Z,12.77
2018-08-23T08:12:57.907Z,15.90
2018-08-23T08:15:26.369Z,15.53
2018-08-23T08:17:54.837Z,11.00
2018-08-23T08:20:23.277Z,12.33
2018-08-23T08:22:51.728Z,11.40
2018-08-23T08:25:20.220Z,12.17
2018-08-23T08:27:49.787Z,11.27
2018-08-23T08:30:22.889Z,11.97
2018-08-23T08:32:51.333Z,11.77
2018-08-23T08:35:20.859Z,11.77
2018-08-23T08:37:50.155Z,9.10
2018-08-23T08:40:22.617Z,12.13
2018-08-23T08:42:51.046Z,9.40
2018-08-23T08:45:19.560Z,10.07
2018-08-23T08:47:48.264Z,10.27
2018-08-23T08:50:17.322Z,9.17
2018-08-23T08:52:46.206Z,9.27
2018-08-23T08:55:16.775Z,8.80
2018-08-23T08:57:47.045Z,7.60
2018-08-23T09:00:15.529Z,12.57
2018-08-23T09:02:44.045Z,7.50
2018-08-23T09:05:12.482Z,8.67
2018-08-23T09:07:43.081Z,8.23
2018-08-23T09:10:11.504Z,9.90
2018-08-23T09:12:45.352Z,9.33
2018-08-23T09:15:13.781Z,7.13
2018-08-23T09:17:44.364Z,9.97
2018-08-23T09:20:18.980Z,6.83
2018-08-23T09:22:52.724Z,7.60
2018-08-23T09:25:33.550Z,5.80
2018-08-23T09:28:02.040Z,7.00
2018-08-23T09:30:31.849Z,5.93
2018-08-23T09:33:05.669Z,6.53
2018-08-23T09:35:34.529Z,9.43
2018-08-23T09:38:10.281Z,7.40
2018-08-23T09:40:38.732Z,5.57
2018-08-23T09:43:07.367Z,6.63
2018-08-23T09:45:36.657Z,6.00
2018-08-23T09:48:05.380Z,5.67
2018-08-23T09:50:33.879Z,6.40
2018-08-23T09:53:04.546Z,6.67
2018-08-23T09:55:33.861Z,7.43
2018-08-23T09:58:02.384Z,5.33
2018-08-23T10:00:36.156Z,6.77
2018-08-23T10:03:10.077Z,5.93
2018-08-23T10:05:48.053Z,8.60
2018-08-23T10:08:22.506Z,6.40
2018-08-23T10:10:56.241Z,6.57
2018-08-23T10:13:29.964Z,5.10
2018-08-23T10:16:03.917Z,7.00
2018-08-23T10:18:37.601Z,6.20
2018-08-23T10:21:06.105Z,6.37
2018-08-23T10:23:34.527Z,6.93
2018-08-23T10:26:39.037Z,7.30
2018-08-23T10:29:07.525Z,4.97
2018-08-23T10:31:35.963Z,5.50
2018-08-23T10:34:11.126Z,5.33
2018-08-23T10:36:39.565Z,4.63
2018-08-23T10:39:11.521Z,10.80
2018-08-23T10:41:39.956Z,6.00
2018-08-23T10:44:08.466Z,4.93
2018-08-23T10:46:42.149Z,6.20
2018-08-23T10:49:10.894Z,4.77
2018-08-23T10:51:39.462Z,7.27
2018-08-23T10:54:07.999Z,8.20
2018-08-23T10:56:37.305Z,7.47
2018-08-23T10:59:06.625Z,10.87
2018-08-23T11:01:35.082Z,7.63
2018-08-23T11:04:05.598Z,10.53
2018-08-23T11:06:34.889Z,10.50
2018-08-23T11:09:08.755Z,12.23
2018-08-23T11:11:38.116Z,13.13
2018-08-23T11:14:12.295Z,10.97
2018-08-23T11:16:46.291Z,15.43
2018-08-23T11:19:20.028Z,13.27
2018-08-23T11:21:48.658Z,13.30
2018-08-23T11:24:17.150Z,15.53
2018-08-23T11:26:45.603Z,16.53
2018-08-23T11:29:14.171Z,16.67
2018-08-23T11:31:42.589Z,14.37
2018-08-23T11:34:11.021Z,13.87
2018-08-23T11:36:39.646Z,14.33
2018-08-23T11:39:09.049Z,14.50
2018-08-23T11:41:37.492Z,14.53
2018-08-23T11:44:05.961Z,18.20
2018-08-23T11:46:34.397Z,19.83
2018-08-23T11:49:02.809Z,15.90
2018-08-23T11:51:32.136Z,18.43
2018-08-23T11:54:00.619Z,21.00
2018-08-23T11:56:29.126Z,16.87
2018-08-23T11:58:57.668Z,20.33
2018-08-23T12:01:26.117Z,19.77
2018-08-23T12:03:54.609Z,24.37
2018-08-23T12:06:23.147Z,24.50
2018-08-23T12:08:51.547Z,18.53
2018-08-23T12:11:20.010Z,18.33
2018-08-23T12:13:49.961Z,19.77
2018-08-23T12:16:18.642Z,17.27
2018-08-23T12:18:47.395Z,19.23
2018-08-23T12:21:15.961Z,16.13
2018-08-23T12:23:44.385Z,16.43
2018-08-23T12:26:13.995Z,19.20
2018-08-23T12:28:47.913Z,19.97
2018-08-23T12:31:16.361Z,18.60
2018-08-23T12:33:45.044Z,19.63
2018-08-23T12:36:13.544Z,18.40
2018-08-23T12:38:47.157Z,20.03
2018-08-23T12:41:20.922Z,20.50
2018-08-23T12:43:52.374Z,17.97
2018-08-23T12:46:20.898Z,18.53
2018-08-23T12:48:53.571Z,19.00
2018-08-23T12:51:22.018Z,24.47
2018-08-23T12:53:50.504Z,23.57
2018-08-23T12:56:18.957Z,23.47
2018-08-23T12:58:47.933Z,25.00
2018-08-23T13:01:16.373Z,26.70
2018-08-23T13:03:44.816Z,26.87
2018-08-23T13:06:13.259Z,22.53
2018-08-23T13:08:41.697Z,23.80
2018-08-23T13:11:10.159Z,21.37
2018-08-23T13:13:38.584Z,21.07
2018-08-23T13:16:07.075Z,23.23
2018-08-23T13:18:35.545Z,16.83
2018-08-23T13:21:03.989Z,18.63
2018-08-23T13:23:32.453Z,14.80
2018-08-23T13:26:00.957Z,19.47
2018-08-23T13:28:29.380Z,18.37
2018-08-23T13:30:57.855Z,15.37
2018-08-23T13:33:27.140Z,16.47
2018-08-23T13:35:56.484Z,15.67
2018-08-23T13:38:24.966Z,14.87
2018-08-23T13:40:53.417Z,13.97
2018-08-23T13:43:22.032Z,15.00
2018-08-23T13:45:50.768Z,17.27
2018-08-23T13:48:19.284Z,15.63
2018-08-23T13:50:47.727Z,15.10
2018-08-23T13:53:16.181Z,13.50
2018-08-23T13:55:44.633Z,15.80
2018-08-23T13:58:13.129Z,10.97
2018-08-23T14:00:42.236Z,11.33
2018-08-23T14:03:11.456Z,13.53
2018-08-23T14:05:41.154Z,14.13
2018-08-23T14:08:11.305Z,12.87
2018-08-23T14:10:40.729Z,15.67
2018-08-23T14:13:10.685Z,14.53
2018-08-23T14:16:14.748Z,14.27
2018-08-23T14:18:43.519Z,14.60
2018-08-23T14:21:12.067Z,14.17
2018-08-23T14:23:40.585Z,12.60
2018-08-23T14:26:09.020Z,16.13
2018-08-23T14:28:37.626Z,14.10
2018-08-23T14:31:06.085Z,13.07
2018-08-23T14:33:34.528Z,13.47
2018-08-23T14:36:02.953Z,16.90
2018-08-23T14:38:31.554Z,11.77
2018-08-23T14:41:00.101Z,11.40
2018-08-23T14:43:28.548Z,14.10
2018-08-23T14:46:02.233Z,12.07
2018-08-23T14:48:30.663Z,12.60
2018-08-23T14:50:59.108Z,11.30
2018-08-23T14:53:28.764Z,10.97
2018-08-23T14:56:02.550Z,9.83
2018-08-23T14:58:31.562Z,11.80
2018-08-23T15:01:00.049Z,14.47
2018-08-23T15:03:29.000Z,10.73
2018-08-23T15:05:57.447Z,13.53
2018-08-23T15:08:26.133Z,11.67
2018-08-23T15:10:54.598Z,11.77
2018-08-23T15:13:23.049Z,14.23
2018-08-23T15:15:52.869Z,9.33
2018-08-23T15:18:22.364Z,15.27
2018-08-23T15:20:51.499Z,15.40
2018-08-23T15:23:19.954Z,15.07
2018-08-23T15:25:48.468Z,12.27
2018-08-23T15:28:17.578Z,13.20
2018-08-23T15:30:46.614Z,14.03
2018-08-23T15:33:15.183Z,12.37
2018-08-23T15:35:43.626Z,14.53
2018-08-23T15:38:12.124Z,18.10
2018-08-23T15:40:40.556Z,21.00
2018-08-23T15:43:09.084Z,15.67
2018-08-23T15:45:37.505Z,37.23
2018-08-23T15:48:06.110Z,23.17
2018-08-23T15:50:34.508Z,26.40
2018-08-23T15:53:02.981Z,12.73
2018-08-23T15:55:31.739Z,13.20
2018-08-23T15:57:59.912Z,110.60
2018-08-23T16:00:32.625Z,11.23
2018-08-23T16:03:01.085Z,12.43
2018-08-23T16:05:29.521Z,13.93
2018-08-23T16:07:57.953Z,17.73
2018-08-23T16:10:26.471Z,16.07
2018-08-23T16:12:54.864Z,13.63
2018-08-23T16:15:24.475Z,9.43
2018-08-23T16:17:58.249Z,9.77
2018-08-23T16:20:32.063Z,11.67
2018-08-23T16:23:00.510Z,10.67
2018-08-23T16:25:29.042Z,7.63
2018-08-23T16:27:57.464Z,8.93
2018-08-23T16:30:26.253Z,9.57
2018-08-23T16:32:54.685Z,8.60
2018-08-23T16:35:23.105Z,8.43
2018-08-23T16:37:51.639Z,9.03
2018-08-23T16:40:25.542Z,7.03
2018-08-23T16:42:53.985Z,6.67
2018-08-23T16:45:22.404Z,6.73
2018-08-23T16:47:50.877Z,8.07
2018-08-23T16:50:19.323Z,8.03
2018-08-23T16:52:47.829Z,7.13
2018-08-23T16:55:16.263Z,9.00
2018-08-23T16:57:44.813Z,7.50
2018-08-23T17:00:13.273Z,9.30
2018-08-23T17:02:41.694Z,7.40
2018-08-23T17:05:10.149Z,7.30
2018-08-23T17:07:38.575Z,9.53
2018-08-23T17:10:07.152Z,7.70
2018-08-23T17:12:35.549Z,6.77
2018-08-23T17:15:04.132Z,7.63
2018-08-23T17:17:33.952Z,5.93
2018-08-23T17:20:02.561Z,7.17
2018-08-23T17:22:31.212Z,6.73
2018-08-23T17:24:59.788Z,6.00
2018-08-23T17:27:28.149Z,6.70
2018-08-23T17:29:56.589Z,6.63
2018-08-23T17:32:25.009Z,6.43
2018-08-23T17:34:53.432Z,4.97
2018-08-23T17:37:21.864Z,5.30
2018-08-23T17:39:50.649Z,8.90
2018-08-23T17:42:19.139Z,6.70
2018-08-23T17:44:47.620Z,6.10
2018-08-23T17:47:16.101Z,6.27
2018-08-23T17:49:44.525Z,5.67
2018-08-23T17:52:12.973Z,5.90
2018-08-23T17:54:41.393Z,4.77
2018-08-23T17:57:09.844Z,5.47
2018-08-23T17:59:38.316Z,3.83
2018-08-23T18:02:06.789Z,18.50
2018-08-23T18:04:35.260Z,5.70
2018-08-23T18:07:03.737Z,4.80
2018-08-23T18:09:32.160Z,4.40
2018-08-23T18:12:00.613Z,4.43
2018-08-23T18:14:29.146Z,5.20
2018-08-23T18:16:58.638Z,5.23
2018-08-23T18:19:27.777Z,4.50
2018-08-23T18:21:56.311Z,9.77
2018-08-23T18:24:25.061Z,7.23
2018-08-23T18:26:53.501Z,9.03
2018-08-23T18:29:21.929Z,5.37
2018-08-23T18:31:50.406Z,6.13
2018-08-23T18:34:18.853Z,6.93
2018-08-23T18:36:47.327Z,5.27
2018-08-23T18:39:16.689Z,16.47
2018-08-23T18:41:45.122Z,6.93
2018-08-23T18:44:13.584Z,6.90
2018-08-23T18:46:43.055Z,6.33
2018-08-23T18:49:11.514Z,2.93
2018-08-23T18:51:39.953Z,2.73
2018-08-23T18:54:08.409Z,5.27
2018-08-23T18:56:36.849Z,5.90
2018-08-23T18:59:05.364Z,4.23
2018-08-23T19:01:33.803Z,4.67
2018-08-23T19:04:02.225Z,3.23
2018-08-23T19:06:35.267Z,4.33
2018-08-23T19:09:06.229Z,3.77
2018-08-23T19:11:34.736Z,1.90
2018-08-23T19:14:03.204Z,3.30
2018-08-23T19:16:36.952Z,2.37
2018-08-23T19:19:05.975Z,1.97
2018-08-23T19:21:34.379Z,1.60
2018-08-23T19:24:02.825Z,2.67
2018-08-23T19:26:31.256Z,3.87
2018-08-23T19:28:59.872Z,4.10
2018-08-23T19:31:28.402Z,2.00
2018-08-23T19:33:56.797Z,4.03
2018-08-23T19:36:25.265Z,2.37
2018-08-23T19:38:53.692Z,6.03
2018-08-23T19:41:22.133Z,3.33
2018-08-23T19:43:50.613Z,2.47
2018-08-23T19:46:24.324Z,3.93
2018-08-23T19:48:58.088Z,1.93
2018-08-23T19:51:26.552Z,3.13
2018-08-23T19:53:55.025Z,4.50
2018-08-23T19:56:23.449Z,3.77
2018-08-23T19:58:52.765Z,2.30
2018-08-23T20:01:21.817Z,2.83
2018-08-23T20:03:50.747Z,4.17
2018-08-23T20:06:20.602Z,2.73
2018-08-23T20:08:49.888Z,4.83
2018-08-23T20:11:19.654Z,3.13
2018-08-23T20:13:49.529Z,4.20
2018-08-23T20:16:18.949Z,2.30
2018-08-23T20:18:48.304Z,2.57
2018-08-23T20:21:18.053Z,3.37
2018-08-23T20:23:47.300Z,5.73
2018-08-23T20:26:16.967Z,5.60
2018-08-23T20:28:45.647Z,3.83
2018-08-23T20:31:14.936Z,4.13
2018-08-23T20:33:43.494Z,4.23
2018-08-23T20:36:13.225Z,3.63
2018-08-23T20:38:42.114Z,6.73
2018-08-23T20:41:10.939Z,3.60
2018-08-23T20:43:40.143Z,3.60
2018-08-23T20:46:09.577Z,4.73
2018-08-23T20:48:39.540Z,4.97
2018-08-23T20:51:09.259Z,3.53
2018-08-23T20:53:37.741Z,2.83
2018-08-23T20:56:06.193Z,3.23
2018-08-23T20:58:34.748Z,4.47
2018-08-23T21:01:03.638Z,3.93
2018-08-23T21:03:32.056Z,2.77
2018-08-23T21:06:00.493Z,4.17
2018-08-23T21:08:28.953Z,2.40
2018-08-23T21:10:57.377Z,2.07
2018-08-23T21:13:25.997Z,3.80
2018-08-23T21:15:54.485Z,3.53
2018-08-23T21:18:22.905Z,1.93
2018-08-23T21:20:51.361Z,3.67
2018-08-23T21:23:19.781Z,3.00
2018-08-23T21:25:48.225Z,2.87
2018-08-23T21:28:16.689Z,4.10
2018-08-23T21:30:45.128Z,1.77
2018-08-23T21:33:14.461Z,2.70
2018-08-23T21:35:43.004Z,3.00
2018-08-23T21:38:11.613Z,3.27
2018-08-23T21:40:40.327Z,2.80
2018-08-23T21:43:09.031Z,2.20
2018-08-23T21:45:37.477Z,1.53
2018-08-23T21:48:05.932Z,1.87
2018-08-23T21:50:34.413Z,1.97
2018-08-23T21:53:03.321Z,1.63
2018-08-23T21:55:38.172Z,1.23
2018-08-23T21:58:08.635Z,2.40
2018-08-23T22:00:44.832Z,1.43
2018-08-23T22:03:14.029Z,3.60
2018-08-23T22:05:42.937Z,6.03
2018-08-23T22:08:11.501Z,1.57
2018-08-23T22:10:39.951Z,1.03
2018-08-23T22:13:08.409Z,1.20
2018-08-23T22:15:42.293Z,2.37
2018-08-23T22:18:10.722Z,1.70
2018-08-23T22:20:39.154Z,2.73
2018-08-23T22:23:07.593Z,1.83
2018-08-23T22:25:36.053Z,2.70
2018-08-23T22:28:04.652Z,2.20
2018-08-23T22:30:33.085Z,2.30
2018-08-23T22:33:01.493Z,1.67
2018-08-23T22:35:30.324Z,2.70
2018-08-23T22:37:58.765Z,1.80
2018-08-23T22:40:27.192Z,2.43
2018-08-23T22:42:55.648Z,2.07
2018-08-23T22:45:24.057Z,1.73
2018-08-23T22:47:52.509Z,2.63
2018-08-23T22:50:21.126Z,3.37
2018-08-23T22:52:49.585Z,2.90
2018-08-23T22:55:18.010Z,3.53
2018-08-23T22:57:46.536Z,2.50
2018-08-23T23:00:14.985Z,2.83
2018-08-23T23:02:43.861Z,3.13
2018-08-23T23:05:12.347Z,2.20
2018-08-23T23:07:40.804Z,2.20
2018-08-23T23:10:09.299Z,4.23
2018-08-23T23:12:37.753Z,2.63
2018-08-23T23:15:07.285Z,6.40
2018-08-23T23:17:35.717Z,4.47
2018-08-23T23:20:04.205Z,4.60
2018-08-23T23:22:32.617Z,6.63
2018-08-23T23:25:01.661Z,2.53
2018-08-23T23:27:30.532Z,2.47
2018-08-23T23:29:59.557Z,2.10
2018-08-23T23:32:28.113Z,3.70
2018-08-23T23:34:56.585Z,2.27
2018-08-23T23:37:25.496Z,3.00
2018-08-23T23:39:53.967Z,2.90
2018-08-23T23:42:22.429Z,4.47
2018-08-23T23:44:50.849Z,4.70
2018-08-23T23:47:19.304Z,4.03
2018-08-23T23:49:47.793Z,4.80
2018-08-23T23:52:16.233Z,3.30
2018-08-23T23:54:44.648Z,4.73
2018-08-23T23:57:13.118Z,3.70
2018-08-23T23:59:41.565Z,4.30
